sensor_id;sensor_type;location;lat;lon;timestamp;P1;durP1;ratioP1;P2;durP2;ratioP2
66607;SDS011;53462;39.616;8.824;2022-07-29T00:00:07;4.53;;;1.92;;
66607;SDS011;53462;39.616;8.824;2022-07-29T00:02:34;7.75;;;2.40;;
66607;SDS011;53462;39.616;8.824;2022-07-29T00:05:01;12.52;;;3.95;;
66607;SDS011;53462;39.616;8.824;2022-07-29T00:07:28;11.60;;;2.95;;
66607;SDS011;53462;39.616;8.824;2022-07-29T00:09:54;4.93;;;2.55;;
66607;SDS011;53462;39.616;8.824;2022-07-29T00:12:20;8.48;;;3.30;;
66607;SDS011;53462;39.616;8.824;2022-07-29T00:14:48;10.95;;;3.30;;
66607;SDS011;53462;39.616;8.824;2022-07-29T00:17:14;4.95;;;2.20;;
66607;SDS011;53462;39.616;8.824;2022-07-29T00:19:40;5.75;;;2.10;;
66607;SDS011;53462;39.616;8.824;2022-07-29T00:22:06;7.22;;;2.05;;
66607;SDS011;53462;39.616;8.824;2022-07-29T00:24:32;4.18;;;2.20;;
66607;SDS011;53462;39.616;8.824;2022-07-29T00:26:58;10.32;;;2.08;;
66607;SDS011;53462;39.616;8.824;2022-07-29T00:29:23;10.27;;;3.22;;
66607;SDS011;53462;39.616;8.824;2022-07-29T00:31:49;5.38;;;2.20;;
66607;SDS011;53462;39.616;8.824;2022-07-29T00:34:15;5.28;;;2.60;;
66607;SDS011;53462;39.616;8.824;2022-07-29T00:37:00;5.82;;;2.40;;
66607;SDS011;53462;39.616;8.824;2022-07-29T00:39:26;6.65;;;2.22;;
66607;SDS011;53462;39.616;8.824;2022-07-29T00:41:52;8.60;;;2.35;;
66607;SDS011;53462;39.616;8.824;2022-07-29T00:44:18;9.10;;;2.58;;
66607;SDS011;53462;39.616;8.824;2022-07-29T00:46:44;7.90;;;2.47;;
66607;SDS011;53462;39.616;8.824;2022-07-29T00:49:10;7.60;;;2.33;;
66607;SDS011;53462;39.616;8.824;2022-07-29T00:51:36;9.40;;;2.67;;
66607;SDS011;53462;39.616;8.824;2022-07-29T00:54:03;6.43;;;2.20;;
66607;SDS011;53462;39.616;8.824;2022-07-29T00:56:30;10.85;;;2.13;;
66607;SDS011;53462;39.616;8.824;2022-07-29T00:58:58;4.97;;;2.40;;
66607;SDS011;53462;39.616;8.824;2022-07-29T01:01:25;8.05;;;2.42;;
66607;SDS011;53462;39.616;8.824;2022-07-29T01:03:51;5.13;;;2.15;;
66607;SDS011;53462;39.616;8.824;2022-07-29T01:06:18;6.22;;;2.80;;
66607;SDS011;53462;39.616;8.824;2022-07-29T01:08:47;9.23;;;2.72;;
66607;SDS011;53462;39.616;8.824;2022-07-29T01:11:14;15.73;;;7.90;;
66607;SDS011;53462;39.616;8.824;2022-07-29T01:13:42;8.98;;;4.25;;
66607;SDS011;53462;39.616;8.824;2022-07-29T01:16:21;5.63;;;2.38;;
66607;SDS011;53462;39.616;8.824;2022-07-29T01:18:53;5.93;;;2.45;;
66607;SDS011;53462;39.616;8.824;2022-07-29T01:24:40;7.13;;;2.47;;
66607;SDS011;53462;39.616;8.824;2022-07-29T01:30:21;7.93;;;2.35;;
66607;SDS011;53462;39.616;8.824;2022-07-29T01:32:50;9.85;;;2.20;;
66607;SDS011;53462;39.616;8.824;2022-07-29T01:35:25;7.63;;;2.60;;
66607;SDS011;53462;39.616;8.824;2022-07-29T01:38:13;8.77;;;2.30;;
66607;SDS011;53462;39.616;8.824;2022-07-29T01:40:52;6.72;;;3.13;;
66607;SDS011;53462;39.616;8.824;2022-07-29T01:43:38;6.07;;;2.35;;
66607;SDS011;53462;39.616;8.824;2022-07-29T01:46:11;4.32;;;1.95;;
66607;SDS011;53462;39.616;8.824;2022-07-29T01:48:45;4.65;;;2.03;;
66607;SDS011;53462;39.616;8.824;2022-07-29T01:53:47;7.82;;;3.35;;
66607;SDS011;53462;39.616;8.824;2022-07-29T01:56:36;6.20;;;2.20;;
66607;SDS011;53462;39.616;8.824;2022-07-29T01:59:04;7.13;;;2.22;;
66607;SDS011;53462;39.616;8.824;2022-07-29T02:01:33;5.57;;;2.33;;
66607;SDS011;53462;39.616;8.824;2022-07-29T02:04:02;6.43;;;2.22;;
66607;SDS011;53462;39.616;8.824;2022-07-29T02:06:30;4.88;;;2.40;;
66607;SDS011;53462;39.616;8.824;2022-07-29T02:08:58;5.55;;;1.80;;
66607;SDS011;53462;39.616;8.824;2022-07-29T02:11:26;6.38;;;2.38;;
66607;SDS011;53462;39.616;8.824;2022-07-29T02:13:52;5.63;;;2.10;;
66607;SDS011;53462;39.616;8.824;2022-07-29T02:16:22;7.28;;;2.10;;
66607;SDS011;53462;39.616;8.824;2022-07-29T02:18:50;6.00;;;2.28;;
66607;SDS011;53462;39.616;8.824;2022-07-29T02:21:19;7.80;;;2.28;;
66607;SDS011;53462;39.616;8.824;2022-07-29T02:23:49;5.55;;;2.30;;
66607;SDS011;53462;39.616;8.824;2022-07-29T02:26:19;3.78;;;1.98;;
66607;SDS011;53462;39.616;8.824;2022-07-29T02:28:46;7.38;;;2.00;;
66607;SDS011;53462;39.616;8.824;2022-07-29T02:31:13;5.60;;;2.53;;
66607;SDS011;53462;39.616;8.824;2022-07-29T02:33:42;3.38;;;1.85;;
66607;SDS011;53462;39.616;8.824;2022-07-29T02:36:09;9.75;;;2.10;;
66607;SDS011;53462;39.616;8.824;2022-07-29T02:38:35;6.38;;;2.28;;
66607;SDS011;53462;39.616;8.824;2022-07-29T02:41:28;6.47;;;2.30;;
66607;SDS011;53462;39.616;8.824;2022-07-29T02:44:05;4.85;;;2.05;;
66607;SDS011;53462;39.616;8.824;2022-07-29T02:46:35;4.03;;;2.00;;
66607;SDS011;53462;39.616;8.824;2022-07-29T02:51:54;4.38;;;2.42;;
66607;SDS011;53462;39.616;8.824;2022-07-29T02:54:29;5.78;;;2.70;;
66607;SDS011;53462;39.616;8.824;2022-07-29T02:57:04;6.60;;;2.33;;
66607;SDS011;53462;39.616;8.824;2022-07-29T02:59:36;8.73;;;3.25;;
66607;SDS011;53462;39.616;8.824;2022-07-29T03:02:04;7.32;;;2.55;;
66607;SDS011;53462;39.616;8.824;2022-07-29T03:04:32;9.05;;;2.40;;
66607;SDS011;53462;39.616;8.824;2022-07-29T03:07:00;5.47;;;2.25;;
66607;SDS011;53462;39.616;8.824;2022-07-29T03:09:27;6.35;;;2.17;;
66607;SDS011;53462;39.616;8.824;2022-07-29T03:11:54;8.27;;;2.53;;
66607;SDS011;53462;39.616;8.824;2022-07-29T03:14:21;5.78;;;2.20;;
66607;SDS011;53462;39.616;8.824;2022-07-29T03:16:48;6.22;;;2.40;;
66607;SDS011;53462;39.616;8.824;2022-07-29T03:19:15;8.35;;;2.33;;
66607;SDS011;53462;39.616;8.824;2022-07-29T03:21:42;6.57;;;2.92;;
66607;SDS011;53462;39.616;8.824;2022-07-29T03:24:08;22.80;;;8.48;;
66607;SDS011;53462;39.616;8.824;2022-07-29T03:26:34;18.45;;;8.30;;
66607;SDS011;53462;39.616;8.824;2022-07-29T03:29:00;14.05;;;5.70;;
66607;SDS011;53462;39.616;8.824;2022-07-29T03:31:26;9.43;;;4.13;;
66607;SDS011;53462;39.616;8.824;2022-07-29T03:33:52;11.25;;;4.38;;
66607;SDS011;53462;39.616;8.824;2022-07-29T03:36:17;7.18;;;3.50;;
66607;SDS011;53462;39.616;8.824;2022-07-29T03:38:43;9.25;;;3.13;;
66607;SDS011;53462;39.616;8.824;2022-07-29T03:41:12;7.47;;;2.95;;
66607;SDS011;53462;39.616;8.824;2022-07-29T03:43:39;4.05;;;2.65;;
66607;SDS011;53462;39.616;8.824;2022-07-29T03:46:07;6.10;;;2.30;;
66607;SDS011;53462;39.616;8.824;2022-07-29T03:48:36;5.60;;;2.42;;
66607;SDS011;53462;39.616;8.824;2022-07-29T03:51:05;4.28;;;2.30;;
66607;SDS011;53462;39.616;8.824;2022-07-29T03:53:31;7.22;;;3.45;;
66607;SDS011;53462;39.616;8.824;2022-07-29T03:56:00;7.30;;;2.65;;
66607;SDS011;53462;39.616;8.824;2022-07-29T03:58:28;4.88;;;2.45;;
66607;SDS011;53462;39.616;8.824;2022-07-29T04:00:56;7.38;;;2.42;;
66607;SDS011;53462;39.616;8.824;2022-07-29T04:03:23;6.95;;;2.50;;
66607;SDS011;53462;39.616;8.824;2022-07-29T04:06:03;6.50;;;2.40;;
66607;SDS011;53462;39.616;8.824;2022-07-29T04:08:33;6.15;;;2.53;;
66607;SDS011;53462;39.616;8.824;2022-07-29T04:11:00;6.18;;;2.50;;
66607;SDS011;53462;39.616;8.824;2022-07-29T04:13:26;6.22;;;2.47;;
66607;SDS011;53462;39.616;8.824;2022-07-29T04:15:52;5.25;;;2.45;;
66607;SDS011;53462;39.616;8.824;2022-07-29T04:18:18;8.73;;;2.50;;
66607;SDS011;53462;39.616;8.824;2022-07-29T04:20:44;8.55;;;2.50;;
66607;SDS011;53462;39.616;8.824;2022-07-29T04:23:10;6.65;;;2.38;;
66607;SDS011;53462;39.616;8.824;2022-07-29T04:25:37;4.85;;;2.08;;
66607;SDS011;53462;39.616;8.824;2022-07-29T04:28:06;12.05;;;3.05;;
66607;SDS011;53462;39.616;8.824;2022-07-29T04:30:33;7.82;;;2.50;;
66607;SDS011;53462;39.616;8.824;2022-07-29T04:33:00;7.50;;;2.63;;
66607;SDS011;53462;39.616;8.824;2022-07-29T04:35:27;8.77;;;2.67;;
66607;SDS011;53462;39.616;8.824;2022-07-29T04:37:53;7.78;;;2.63;;
66607;SDS011;53462;39.616;8.824;2022-07-29T04:40:19;9.85;;;2.72;;
66607;SDS011;53462;39.616;8.824;2022-07-29T04:42:45;12.13;;;3.00;;
66607;SDS011;53462;39.616;8.824;2022-07-29T04:45:11;5.75;;;2.55;;
66607;SDS011;53462;39.616;8.824;2022-07-29T04:47:37;9.68;;;2.75;;
66607;SDS011;53462;39.616;8.824;2022-07-29T04:50:03;4.13;;;2.53;;
66607;SDS011;53462;39.616;8.824;2022-07-29T04:52:32;8.35;;;2.20;;
66607;SDS011;53462;39.616;8.824;2022-07-29T04:54:58;7.82;;;2.88;;
66607;SDS011;53462;39.616;8.824;2022-07-29T04:57:24;7.93;;;2.38;;
66607;SDS011;53462;39.616;8.824;2022-07-29T04:59:50;4.70;;;2.35;;
66607;SDS011;53462;39.616;8.824;2022-07-29T05:02:16;7.07;;;2.40;;
66607;SDS011;53462;39.616;8.824;2022-07-29T05:04:42;8.00;;;2.28;;
66607;SDS011;53462;39.616;8.824;2022-07-29T05:07:08;12.02;;;2.55;;
66607;SDS011;53462;39.616;8.824;2022-07-29T05:09:34;10.15;;;2.53;;
66607;SDS011;53462;39.616;8.824;2022-07-29T05:12:00;6.03;;;2.35;;
66607;SDS011;53462;39.616;8.824;2022-07-29T05:14:26;6.70;;;2.55;;
66607;SDS011;53462;39.616;8.824;2022-07-29T05:16:51;11.48;;;2.38;;
66607;SDS011;53462;39.616;8.824;2022-07-29T05:19:21;10.85;;;2.40;;
66607;SDS011;53462;39.616;8.824;2022-07-29T05:21:48;32.35;;;3.28;;
66607;SDS011;53462;39.616;8.824;2022-07-29T05:24:15;14.35;;;3.40;;
66607;SDS011;53462;39.616;8.824;2022-07-29T05:26:41;10.00;;;2.70;;
66607;SDS011;53462;39.616;8.824;2022-07-29T05:29:07;11.93;;;2.50;;
66607;SDS011;53462;39.616;8.824;2022-07-29T05:31:33;5.97;;;2.67;;
66607;SDS011;53462;39.616;8.824;2022-07-29T05:33:59;13.43;;;3.25;;
66607;SDS011;53462;39.616;8.824;2022-07-29T05:36:25;6.05;;;3.05;;
66607;SDS011;53462;39.616;8.824;2022-07-29T05:38:51;9.00;;;2.90;;
66607;SDS011;53462;39.616;8.824;2022-07-29T05:41:18;6.97;;;2.67;;
66607;SDS011;53462;39.616;8.824;2022-07-29T05:43:44;7.05;;;2.63;;
66607;SDS011;53462;39.616;8.824;2022-07-29T05:46:10;9.60;;;2.55;;
66607;SDS011;53462;39.616;8.824;2022-07-29T05:48:36;6.32;;;2.42;;
66607;SDS011;53462;39.616;8.824;2022-07-29T05:51:02;5.95;;;2.53;;
66607;SDS011;53462;39.616;8.824;2022-07-29T05:53:28;7.22;;;2.45;;
66607;SDS011;53462;39.616;8.824;2022-07-29T05:55:54;9.07;;;2.92;;
66607;SDS011;53462;39.616;8.824;2022-07-29T05:58:20;4.47;;;2.55;;
66607;SDS011;53462;39.616;8.824;2022-07-29T06:00:45;6.78;;;2.45;;
66607;SDS011;53462;39.616;8.824;2022-07-29T06:03:11;7.60;;;2.28;;
66607;SDS011;53462;39.616;8.824;2022-07-29T06:05:37;5.53;;;2.40;;
66607;SDS011;53462;39.616;8.824;2022-07-29T06:08:03;5.57;;;2.30;;
66607;SDS011;53462;39.616;8.824;2022-07-29T06:10:34;5.63;;;2.58;;
66607;SDS011;53462;39.616;8.824;2022-07-29T06:13:00;8.15;;;2.20;;
66607;SDS011;53462;39.616;8.824;2022-07-29T06:15:26;3.92;;;2.08;;
66607;SDS011;53462;39.616;8.824;2022-07-29T06:17:52;11.05;;;2.75;;
66607;SDS011;53462;39.616;8.824;2022-07-29T06:20:18;8.93;;;2.90;;
66607;SDS011;53462;39.616;8.824;2022-07-29T06:22:44;7.80;;;3.53;;
66607;SDS011;53462;39.616;8.824;2022-07-29T06:25:10;10.52;;;3.30;;
66607;SDS011;53462;39.616;8.824;2022-07-29T06:27:37;5.15;;;2.45;;
66607;SDS011;53462;39.616;8.824;2022-07-29T06:30:03;6.68;;;2.88;;
66607;SDS011;53462;39.616;8.824;2022-07-29T06:32:31;5.35;;;2.40;;
66607;SDS011;53462;39.616;8.824;2022-07-29T06:34:58;4.60;;;2.30;;
66607;SDS011;53462;39.616;8.824;2022-07-29T06:37:24;7.63;;;2.10;;
66607;SDS011;53462;39.616;8.824;2022-07-29T06:39:50;10.63;;;2.30;;
66607;SDS011;53462;39.616;8.824;2022-07-29T06:42:44;10.18;;;2.55;;
66607;SDS011;53462;39.616;8.824;2022-07-29T06:45:10;7.70;;;2.13;;
66607;SDS011;53462;39.616;8.824;2022-07-29T06:47:37;7.30;;;2.70;;
66607;SDS011;53462;39.616;8.824;2022-07-29T06:50:03;5.25;;;2.10;;
66607;SDS011;53462;39.616;8.824;2022-07-29T06:52:30;7.40;;;1.98;;
66607;SDS011;53462;39.616;8.824;2022-07-29T06:54:55;5.65;;;1.77;;
66607;SDS011;53462;39.616;8.824;2022-07-29T06:57:21;5.82;;;1.85;;
66607;SDS011;53462;39.616;8.824;2022-07-29T06:59:47;4.70;;;1.83;;
66607;SDS011;53462;39.616;8.824;2022-07-29T07:02:13;3.40;;;2.08;;
66607;SDS011;53462;39.616;8.824;2022-07-29T07:04:39;8.85;;;2.35;;
66607;SDS011;53462;39.616;8.824;2022-07-29T07:07:05;8.85;;;2.20;;
66607;SDS011;53462;39.616;8.824;2022-07-29T07:09:31;4.45;;;2.17;;
66607;SDS011;53462;39.616;8.824;2022-07-29T07:11:57;7.47;;;2.38;;
66607;SDS011;53462;39.616;8.824;2022-07-29T07:14:23;6.35;;;2.20;;
66607;SDS011;53462;39.616;8.824;2022-07-29T07:16:51;8.35;;;2.20;;
66607;SDS011;53462;39.616;8.824;2022-07-29T07:19:17;5.18;;;2.13;;
66607;SDS011;53462;39.616;8.824;2022-07-29T07:21:44;8.48;;;2.17;;
66607;SDS011;53462;39.616;8.824;2022-07-29T07:24:10;5.18;;;2.42;;
66607;SDS011;53462;39.616;8.824;2022-07-29T07:26:36;5.20;;;2.00;;
66607;SDS011;53462;39.616;8.824;2022-07-29T07:29:03;10.63;;;2.63;;
66607;SDS011;53462;39.616;8.824;2022-07-29T07:31:28;5.20;;;2.00;;
66607;SDS011;53462;39.616;8.824;2022-07-29T07:33:54;7.05;;;2.00;;
66607;SDS011;53462;39.616;8.824;2022-07-29T07:36:21;6.45;;;2.20;;
66607;SDS011;53462;39.616;8.824;2022-07-29T07:38:47;6.07;;;2.28;;
66607;SDS011;53462;39.616;8.824;2022-07-29T07:41:13;4.70;;;2.20;;
66607;SDS011;53462;39.616;8.824;2022-07-29T07:43:39;6.45;;;2.50;;
66607;SDS011;53462;39.616;8.824;2022-07-29T07:46:05;5.35;;;2.10;;
66607;SDS011;53462;39.616;8.824;2022-07-29T07:48:31;7.28;;;2.45;;
66607;SDS011;53462;39.616;8.824;2022-07-29T07:50:57;8.70;;;2.42;;
66607;SDS011;53462;39.616;8.824;2022-07-29T07:53:23;4.60;;;2.20;;
66607;SDS011;53462;39.616;8.824;2022-07-29T07:55:49;5.45;;;2.47;;
66607;SDS011;53462;39.616;8.824;2022-07-29T07:58:14;5.20;;;2.05;;
66607;SDS011;53462;39.616;8.824;2022-07-29T08:00:40;4.63;;;1.90;;
66607;SDS011;53462;39.616;8.824;2022-07-29T08:03:06;9.52;;;2.50;;
66607;SDS011;53462;39.616;8.824;2022-07-29T08:05:33;4.53;;;2.28;;
66607;SDS011;53462;39.616;8.824;2022-07-29T08:08:01;4.30;;;2.28;;
66607;SDS011;53462;39.616;8.824;2022-07-29T08:10:27;6.80;;;2.17;;
66607;SDS011;53462;39.616;8.824;2022-07-29T08:13:11;6.18;;;2.22;;
66607;SDS011;53462;39.616;8.824;2022-07-29T08:15:38;4.18;;;1.77;;
66607;SDS011;53462;39.616;8.824;2022-07-29T08:18:04;4.93;;;2.15;;
66607;SDS011;53462;39.616;8.824;2022-07-29T08:20:30;6.38;;;2.38;;
66607;SDS011;53462;39.616;8.824;2022-07-29T08:22:58;8.32;;;2.20;;
66607;SDS011;53462;39.616;8.824;2022-07-29T08:25:24;7.55;;;2.33;;
66607;SDS011;53462;39.616;8.824;2022-07-29T08:27:50;4.60;;;2.22;;
66607;SDS011;53462;39.616;8.824;2022-07-29T08:30:16;6.03;;;2.30;;
66607;SDS011;53462;39.616;8.824;2022-07-29T08:32:42;5.40;;;2.00;;
66607;SDS011;53462;39.616;8.824;2022-07-29T08:35:08;4.55;;;2.50;;
66607;SDS011;53462;39.616;8.824;2022-07-29T08:37:34;6.95;;;2.60;;
66607;SDS011;53462;39.616;8.824;2022-07-29T08:40:00;6.07;;;2.13;;
66607;SDS011;53462;39.616;8.824;2022-07-29T08:42:26;7.00;;;2.10;;
66607;SDS011;53462;39.616;8.824;2022-07-29T08:44:52;5.50;;;2.15;;
66607;SDS011;53462;39.616;8.824;2022-07-29T08:47:18;5.15;;;2.08;;
66607;SDS011;53462;39.616;8.824;2022-07-29T08:49:44;4.97;;;2.10;;
66607;SDS011;53462;39.616;8.824;2022-07-29T08:52:12;6.55;;;2.00;;
66607;SDS011;53462;39.616;8.824;2022-07-29T08:54:39;4.80;;;2.10;;
66607;SDS011;53462;39.616;8.824;2022-07-29T08:57:10;4.20;;;1.92;;
66607;SDS011;53462;39.616;8.824;2022-07-29T08:59:40;6.93;;;2.45;;
66607;SDS011;53462;39.616;8.824;2022-07-29T09:02:10;4.75;;;2.30;;
66607;SDS011;53462;39.616;8.824;2022-07-29T09:04:44;6.93;;;2.30;;
66607;SDS011;53462;39.616;8.824;2022-07-29T09:07:10;8.07;;;2.90;;
66607;SDS011;53462;39.616;8.824;2022-07-29T09:09:41;5.65;;;2.10;;
66607;SDS011;53462;39.616;8.824;2022-07-29T09:12:08;7.13;;;2.10;;
66607;SDS011;53462;39.616;8.824;2022-07-29T09:14:39;5.55;;;2.17;;
66607;SDS011;53462;39.616;8.824;2022-07-29T09:17:05;9.95;;;5.10;;
66607;SDS011;53462;39.616;8.824;2022-07-29T09:19:33;17.60;;;9.63;;
66607;SDS011;53462;39.616;8.824;2022-07-29T09:22:01;11.90;;;6.35;;
66607;SDS011;53462;39.616;8.824;2022-07-29T09:24:37;5.63;;;2.13;;
66607;SDS011;53462;39.616;8.824;2022-07-29T09:27:08;6.90;;;1.98;;
66607;SDS011;53462;39.616;8.824;2022-07-29T09:29:35;8.75;;;4.13;;
66607;SDS011;53462;39.616;8.824;2022-07-29T09:32:02;5.85;;;1.92;;
66607;SDS011;53462;39.616;8.824;2022-07-29T09:34:33;5.30;;;1.92;;
66607;SDS011;53462;39.616;8.824;2022-07-29T09:36:59;6.47;;;2.05;;
66607;SDS011;53462;39.616;8.824;2022-07-29T09:39:38;6.72;;;2.05;;
66607;SDS011;53462;39.616;8.824;2022-07-29T09:42:11;10.55;;;2.10;;
66607;SDS011;53462;39.616;8.824;2022-07-29T09:44:44;6.97;;;2.67;;
66607;SDS011;53462;39.616;8.824;2022-07-29T09:47:13;6.95;;;2.17;;
66607;SDS011;53462;39.616;8.824;2022-07-29T09:49:57;6.07;;;2.50;;
66607;SDS011;53462;39.616;8.824;2022-07-29T09:52:25;4.47;;;1.80;;
66607;SDS011;53462;39.616;8.824;2022-07-29T09:55:06;5.97;;;2.10;;
66607;SDS011;53462;39.616;8.824;2022-07-29T09:57:35;10.18;;;2.35;;
66607;SDS011;53462;39.616;8.824;2022-07-29T10:00:05;3.70;;;2.00;;
66607;SDS011;53462;39.616;8.824;2022-07-29T10:02:38;7.63;;;2.00;;
66607;SDS011;53462;39.616;8.824;2022-07-29T10:05:26;9.63;;;2.10;;
66607;SDS011;53462;39.616;8.824;2022-07-29T10:07:55;5.57;;;2.00;;
66607;SDS011;53462;39.616;8.824;2022-07-29T10:10:29;6.45;;;1.80;;
66607;SDS011;53462;39.616;8.824;2022-07-29T10:15:35;8.35;;;1.98;;
66607;SDS011;53462;39.616;8.824;2022-07-29T10:18:04;5.13;;;1.80;;
66607;SDS011;53462;39.616;8.824;2022-07-29T10:20:31;6.95;;;2.03;;
66607;SDS011;53462;39.616;8.824;2022-07-29T10:22:56;5.53;;;2.00;;
66607;SDS011;53462;39.616;8.824;2022-07-29T10:25:23;6.03;;;1.88;;
66607;SDS011;53462;39.616;8.824;2022-07-29T10:27:50;4.90;;;1.98;;
66607;SDS011;53462;39.616;8.824;2022-07-29T10:30:17;6.07;;;2.00;;
66607;SDS011;53462;39.616;8.824;2022-07-29T10:43:53;8.75;;;2.15;;
66607;SDS011;53462;39.616;8.824;2022-07-29T10:46:19;4.75;;;1.90;;
66607;SDS011;53462;39.616;8.824;2022-07-29T10:59:44;4.38;;;1.85;;
66607;SDS011;53462;39.616;8.824;2022-07-29T11:05:23;8.98;;;2.20;;
66607;SDS011;53462;39.616;8.824;2022-07-29T11:10:39;6.28;;;1.70;;
66607;SDS011;53462;39.616;8.824;2022-07-29T11:13:05;5.38;;;1.80;;
66607;SDS011;53462;39.616;8.824;2022-07-29T11:18:19;5.03;;;2.00;;
66607;SDS011;53462;39.616;8.824;2022-07-29T11:20:46;2.88;;;1.63;;
66607;SDS011;53462;39.616;8.824;2022-07-29T11:28:57;3.10;;;1.80;;
66607;SDS011;53462;39.616;8.824;2022-07-29T11:39:38;5.43;;;1.80;;
66607;SDS011;53462;39.616;8.824;2022-07-29T11:44:56;5.25;;;1.90;;
66607;SDS011;53462;39.616;8.824;2022-07-29T11:47:42;4.97;;;1.90;;
66607;SDS011;53462;39.616;8.824;2022-07-29T11:52:45;3.00;;;1.83;;
66607;SDS011;53462;39.616;8.824;2022-07-29T11:55:16;5.13;;;1.80;;
66607;SDS011;53462;39.616;8.824;2022-07-29T11:57:53;3.83;;;1.70;;
66607;SDS011;53462;39.616;8.824;2022-07-29T12:00:30;6.97;;;1.90;;
66607;SDS011;53462;39.616;8.824;2022-07-29T12:02:58;3.70;;;1.73;;
66607;SDS011;53462;39.616;8.824;2022-07-29T12:05:40;3.22;;;1.67;;
66607;SDS011;53462;39.616;8.824;2022-07-29T12:08:16;5.13;;;2.00;;
66607;SDS011;53462;39.616;8.824;2022-07-29T12:10:45;4.10;;;1.60;;
66607;SDS011;53462;39.616;8.824;2022-07-29T12:13:13;5.40;;;1.90;;
66607;SDS011;53462;39.616;8.824;2022-07-29T12:15:40;3.33;;;2.10;;
66607;SDS011;53462;39.616;8.824;2022-07-29T12:18:14;3.50;;;1.70;;
66607;SDS011;53462;39.616;8.824;2022-07-29T12:20:41;2.65;;;1.90;;
66607;SDS011;53462;39.616;8.824;2022-07-29T12:23:08;4.57;;;1.70;;
66607;SDS011;53462;39.616;8.824;2022-07-29T12:25:37;3.65;;;1.85;;
66607;SDS011;53462;39.616;8.824;2022-07-29T12:28:04;4.63;;;1.63;;
66607;SDS011;53462;39.616;8.824;2022-07-29T12:30:35;4.40;;;1.90;;
66607;SDS011;53462;39.616;8.824;2022-07-29T12:33:13;5.57;;;2.08;;
66607;SDS011;53462;39.616;8.824;2022-07-29T12:35:41;4.47;;;1.85;;
66607;SDS011;53462;39.616;8.824;2022-07-29T12:38:09;4.38;;;1.90;;
66607;SDS011;53462;39.616;8.824;2022-07-29T12:40:36;5.18;;;1.80;;
66607;SDS011;53462;39.616;8.824;2022-07-29T12:45:40;5.78;;;2.00;;
66607;SDS011;53462;39.616;8.824;2022-07-29T12:48:06;4.65;;;1.83;;
66607;SDS011;53462;39.616;8.824;2022-07-29T12:50:57;7.53;;;2.13;;
66607;SDS011;53462;39.616;8.824;2022-07-29T12:53:22;11.43;;;2.20;;
66607;SDS011;53462;39.616;8.824;2022-07-29T12:55:50;6.80;;;1.92;;
66607;SDS011;53462;39.616;8.824;2022-07-29T13:01:15;5.95;;;2.03;;
66607;SDS011;53462;39.616;8.824;2022-07-29T13:11:31;5.22;;;1.75;;
66607;SDS011;53462;39.616;8.824;2022-07-29T13:13:58;5.03;;;1.70;;
66607;SDS011;53462;39.616;8.824;2022-07-29T13:16:24;5.70;;;1.80;;
66607;SDS011;53462;39.616;8.824;2022-07-29T13:18:54;5.63;;;1.95;;
66607;SDS011;53462;39.616;8.824;2022-07-29T13:21:35;4.15;;;1.77;;
66607;SDS011;53462;39.616;8.824;2022-07-29T13:24:02;5.32;;;1.75;;
66607;SDS011;53462;39.616;8.824;2022-07-29T13:26:29;3.60;;;1.77;;
66607;SDS011;53462;39.616;8.824;2022-07-29T13:28:55;4.07;;;1.70;;
66607;SDS011;53462;39.616;8.824;2022-07-29T13:31:21;3.92;;;1.90;;
66607;SDS011;53462;39.616;8.824;2022-07-29T13:33:47;6.70;;;1.80;;
66607;SDS011;53462;39.616;8.824;2022-07-29T13:36:13;7.43;;;1.80;;
66607;SDS011;53462;39.616;8.824;2022-07-29T13:38:39;5.82;;;1.83;;
66607;SDS011;53462;39.616;8.824;2022-07-29T13:41:05;4.35;;;1.80;;
66607;SDS011;53462;39.616;8.824;2022-07-29T13:43:31;4.18;;;1.60;;
66607;SDS011;53462;39.616;8.824;2022-07-29T13:45:57;4.88;;;1.65;;
66607;SDS011;53462;39.616;8.824;2022-07-29T13:48:23;4.25;;;1.85;;
66607;SDS011;53462;39.616;8.824;2022-07-29T13:50:49;3.40;;;1.60;;
66607;SDS011;53462;39.616;8.824;2022-07-29T13:53:15;4.55;;;2.00;;
66607;SDS011;53462;39.616;8.824;2022-07-29T13:55:41;10.52;;;2.00;;
66607;SDS011;53462;39.616;8.824;2022-07-29T13:58:07;5.40;;;1.70;;
66607;SDS011;53462;39.616;8.824;2022-07-29T14:00:33;5.28;;;1.80;;
66607;SDS011;53462;39.616;8.824;2022-07-29T14:02:59;5.25;;;1.88;;
66607;SDS011;53462;39.616;8.824;2022-07-29T14:05:25;8.98;;;1.80;;
66607;SDS011;53462;39.616;8.824;2022-07-29T14:07:51;4.60;;;1.50;;
66607;SDS011;53462;39.616;8.824;2022-07-29T14:10:17;4.72;;;1.92;;
66607;SDS011;53462;39.616;8.824;2022-07-29T14:12:43;5.43;;;1.70;;
66607;SDS011;53462;39.616;8.824;2022-07-29T14:15:08;3.95;;;1.85;;
66607;SDS011;53462;39.616;8.824;2022-07-29T14:17:34;4.20;;;1.75;;
66607;SDS011;53462;39.616;8.824;2022-07-29T14:20:00;3.80;;;1.70;;
66607;SDS011;53462;39.616;8.824;2022-07-29T14:22:26;4.07;;;1.60;;
66607;SDS011;53462;39.616;8.824;2022-07-29T14:24:52;5.35;;;1.70;;
66607;SDS011;53462;39.616;8.824;2022-07-29T14:27:18;4.05;;;1.65;;
66607;SDS011;53462;39.616;8.824;2022-07-29T14:29:44;5.97;;;1.60;;
66607;SDS011;53462;39.616;8.824;2022-07-29T14:32:10;3.92;;;1.63;;
66607;SDS011;53462;39.616;8.824;2022-07-29T14:34:36;3.13;;;1.30;;
66607;SDS011;53462;39.616;8.824;2022-07-29T14:37:03;3.97;;;1.80;;
66607;SDS011;53462;39.616;8.824;2022-07-29T14:39:30;4.70;;;1.88;;
66607;SDS011;53462;39.616;8.824;2022-07-29T14:41:56;6.15;;;1.60;;
66607;SDS011;53462;39.616;8.824;2022-07-29T14:44:22;2.72;;;1.67;;
66607;SDS011;53462;39.616;8.824;2022-07-29T14:46:49;7.40;;;1.60;;
66607;SDS011;53462;39.616;8.824;2022-07-29T14:49:15;6.00;;;1.65;;
66607;SDS011;53462;39.616;8.824;2022-07-29T14:51:41;5.88;;;1.92;;
66607;SDS011;53462;39.616;8.824;2022-07-29T14:54:07;5.45;;;1.48;;
66607;SDS011;53462;39.616;8.824;2022-07-29T14:56:34;4.05;;;1.70;;
66607;SDS011;53462;39.616;8.824;2022-07-29T14:59:00;2.78;;;1.52;;
66607;SDS011;53462;39.616;8.824;2022-07-29T15:01:25;2.90;;;1.40;;
66607;SDS011;53462;39.616;8.824;2022-07-29T15:03:51;4.70;;;1.58;;
66607;SDS011;53462;39.616;8.824;2022-07-29T15:06:17;4.68;;;1.50;;
66607;SDS011;53462;39.616;8.824;2022-07-29T15:08:43;3.58;;;1.63;;
66607;SDS011;53462;39.616;8.824;2022-07-29T15:11:09;2.53;;;1.30;;
66607;SDS011;53462;39.616;8.824;2022-07-29T15:13:35;3.80;;;1.73;;
66607;SDS011;53462;39.616;8.824;2022-07-29T15:16:01;4.82;;;1.55;;
66607;SDS011;53462;39.616;8.824;2022-07-29T15:18:27;3.90;;;1.50;;
66607;SDS011;53462;39.616;8.824;2022-07-29T15:20:53;6.97;;;1.77;;
66607;SDS011;53462;39.616;8.824;2022-07-29T15:23:19;4.22;;;1.40;;
66607;SDS011;53462;39.616;8.824;2022-07-29T15:25:45;2.90;;;1.30;;
66607;SDS011;53462;39.616;8.824;2022-07-29T15:28:11;3.05;;;1.40;;
66607;SDS011;53462;39.616;8.824;2022-07-29T15:30:37;4.65;;;1.50;;
66607;SDS011;53462;39.616;8.824;2022-07-29T15:33:06;4.03;;;1.52;;
66607;SDS011;53462;39.616;8.824;2022-07-29T15:35:36;4.07;;;1.70;;
66607;SDS011;53462;39.616;8.824;2022-07-29T15:38:03;3.70;;;1.60;;
66607;SDS011;53462;39.616;8.824;2022-07-29T15:40:29;3.92;;;1.50;;
66607;SDS011;53462;39.616;8.824;2022-07-29T15:42:55;4.43;;;1.70;;
66607;SDS011;53462;39.616;8.824;2022-07-29T15:45:21;5.45;;;1.60;;
66607;SDS011;53462;39.616;8.824;2022-07-29T15:47:47;5.43;;;1.50;;
66607;SDS011;53462;39.616;8.824;2022-07-29T15:50:13;4.35;;;1.73;;
66607;SDS011;53462;39.616;8.824;2022-07-29T15:52:43;2.45;;;1.40;;
66607;SDS011;53462;39.616;8.824;2022-07-29T15:55:09;5.50;;;1.70;;
66607;SDS011;53462;39.616;8.824;2022-07-29T15:57:35;2.70;;;1.30;;
66607;SDS011;53462;39.616;8.824;2022-07-29T16:00:02;4.05;;;1.45;;
66607;SDS011;53462;39.616;8.824;2022-07-29T16:02:33;2.92;;;1.33;;
66607;SDS011;53462;39.616;8.824;2022-07-29T16:04:59;8.25;;;1.70;;
66607;SDS011;53462;39.616;8.824;2022-07-29T16:07:25;3.45;;;1.50;;